createdAt,value
2023-04-27T00:01:13.577Z,53.54
2023-04-27T00:03:40.215Z,53.39
2023-04-27T00:06:06.799Z,53.34
2023-04-27T00:08:34.398Z,53.39
2023-04-27T00:11:00.824Z,53.43
2023-04-27T00:13:27.792Z,53.38
2023-04-27T00:15:55.984Z,53.08
2023-04-27T00:18:22.776Z,53.46
2023-04-27T00:20:49.132Z,53.36
2023-04-27T00:23:15.433Z,53.34
2023-04-27T00:25:41.742Z,53.37
2023-04-27T00:28:08.041Z,53.37
2023-04-27T00:30:34.395Z,53.57
2023-04-27T00:33:00.900Z,53.34
2023-04-27T00:35:27.337Z,53.33
2023-04-27T00:37:54.227Z,53.55
2023-04-27T00:40:20.583Z,53.27
2023-04-27T00:42:47.050Z,53.04
2023-04-27T00:45:13.534Z,53.47
2023-04-27T00:47:40.136Z,53.34
2023-04-27T00:50:06.843Z,53.58
2023-04-27T00:52:33.450Z,52.94
2023-04-27T00:54:59.826Z,53.35
2023-04-27T00:57:26.128Z,53.21
2023-04-27T00:59:52.519Z,53.29
2023-04-27T01:02:19.234Z,53.22
2023-04-27T01:04:46.565Z,53.38
2023-04-27T01:07:13.406Z,53.60
2023-04-27T01:09:40.311Z,53.30
2023-04-27T01:12:07.057Z,53.17
2023-04-27T01:14:33.987Z,53.27
2023-04-27T01:17:00.608Z,53.51
2023-04-27T01:19:27.718Z,53.30
2023-04-27T01:21:54.430Z,53.32
2023-04-27T01:24:21.000Z,53.50
2023-04-27T01:26:47.615Z,53.38
2023-04-27T01:29:14.606Z,53.39
2023-04-27T01:31:41.407Z,53.39
2023-04-27T01:34:08.068Z,53.78
2023-04-27T01:36:34.607Z,53.61
2023-04-27T01:39:01.415Z,53.46
2023-04-27T01:41:27.791Z,53.17
2023-04-27T01:43:54.189Z,53.29
2023-04-27T01:46:20.749Z,53.17
2023-04-27T01:48:47.017Z,53.53
2023-04-27T01:51:13.382Z,53.33
2023-04-27T01:53:39.932Z,53.26
2023-04-27T01:56:06.178Z,53.30
2023-04-27T01:58:32.583Z,53.22
2023-04-27T02:00:58.855Z,53.71
2023-04-27T02:03:25.494Z,53.42
2023-04-27T02:05:53.506Z,53.32
2023-04-27T02:08:19.816Z,53.21
2023-04-27T02:10:46.681Z,53.31
2023-04-27T02:13:13.129Z,53.27
2023-04-27T02:15:39.587Z,53.25
2023-04-27T02:18:06.239Z,53.44
2023-04-27T02:20:32.780Z,53.36
2023-04-27T02:22:59.508Z,53.28
2023-04-27T02:25:26.231Z,53.28
2023-04-27T02:27:53.054Z,53.49
2023-04-27T02:30:19.999Z,53.27
2023-04-27T02:32:47.273Z,53.51
2023-04-27T02:35:13.691Z,53.32
2023-04-27T02:37:39.992Z,53.57
2023-04-27T02:40:06.349Z,53.71
2023-04-27T02:42:33.246Z,53.58
2023-04-27T02:44:59.624Z,53.36
2023-04-27T02:47:26.135Z,53.25
2023-04-27T02:49:53.018Z,53.27
2023-04-27T02:52:19.333Z,53.46
2023-04-27T02:54:45.660Z,53.41
2023-04-27T02:57:12.053Z,53.20
2023-04-27T02:59:38.521Z,53.33
2023-04-27T03:02:04.942Z,53.38
2023-04-27T03:04:31.567Z,53.34
2023-04-27T03:06:58.868Z,53.64
2023-04-27T03:09:25.487Z,53.57
2023-04-27T03:11:51.949Z,53.54
2023-04-27T03:14:18.309Z,53.43
2023-04-27T03:16:44.693Z,53.48
2023-04-27T03:19:11.349Z,53.47
2023-04-27T03:21:38.016Z,53.51
2023-04-27T03:24:04.539Z,53.50
2023-04-27T03:26:31.428Z,53.50
2023-04-27T03:28:57.830Z,53.41
2023-04-27T03:31:24.208Z,53.68
2023-04-27T03:33:50.767Z,53.48
2023-04-27T03:36:17.310Z,53.46
2023-04-27T03:38:43.661Z,53.52
2023-04-27T03:41:09.978Z,53.56
2023-04-27T03:43:36.452Z,53.49
2023-04-27T03:46:03.493Z,53.60
2023-04-27T03:48:29.773Z,53.54
2023-04-27T03:50:56.176Z,53.53
2023-04-27T03:53:22.533Z,53.56
2023-04-27T03:55:48.914Z,53.22
2023-04-27T03:58:15.197Z,53.45
2023-04-27T04:00:41.586Z,53.53
2023-04-27T04:03:08.763Z,53.55
2023-04-27T04:05:35.515Z,53.62
2023-04-27T04:08:02.085Z,53.56
2023-04-27T04:10:28.356Z,53.52
2023-04-27T04:12:54.808Z,53.70
2023-04-27T04:15:21.512Z,53.52
2023-04-27T04:17:47.855Z,53.47
2023-04-27T04:20:14.356Z,53.56
2023-04-27T04:22:40.605Z,53.65
2023-04-27T04:25:07.008Z,53.46
2023-04-27T04:27:33.675Z,53.34
2023-04-27T04:30:01.383Z,53.35
2023-04-27T04:32:28.279Z,53.61
2023-04-27T04:34:54.845Z,53.75
2023-04-27T04:37:22.014Z,53.31
2023-04-27T04:39:48.431Z,53.68
2023-04-27T04:42:15.855Z,53.58
2023-04-27T04:44:42.204Z,53.77
2023-04-27T04:47:08.475Z,53.63
2023-04-27T04:49:34.993Z,53.52
2023-04-27T04:52:01.371Z,53.66
2023-04-27T04:54:27.910Z,53.75
2023-04-27T04:56:54.215Z,53.74
2023-04-27T04:59:20.554Z,53.52
2023-04-27T05:01:46.995Z,53.33
2023-04-27T05:04:13.802Z,53.50
2023-04-27T05:06:40.363Z,53.87
2023-04-27T05:09:07.247Z,53.74
2023-04-27T05:11:33.557Z,53.80
2023-04-27T05:13:59.926Z,53.87
2023-04-27T05:16:26.614Z,53.62
2023-04-27T05:18:53.137Z,53.79
2023-04-27T05:21:19.620Z,53.69
2023-04-27T05:23:46.100Z,53.64
2023-04-27T05:26:12.661Z,53.74
2023-04-27T05:28:39.215Z,53.48
2023-04-27T05:31:05.692Z,53.47
2023-04-27T05:33:31.948Z,53.83
2023-04-27T05:35:58.377Z,53.67
2023-04-27T05:38:25.359Z,53.91
2023-04-27T05:40:52.058Z,53.94
2023-04-27T05:43:19.144Z,53.79
2023-04-27T05:45:45.475Z,53.80
2023-04-27T05:48:11.782Z,54.23
2023-04-27T05:50:38.333Z,53.99
2023-04-27T05:53:04.640Z,54.08
2023-04-27T05:55:31.007Z,54.06
2023-04-27T05:58:07.102Z,54.04
2023-04-27T06:00:34.617Z,54.85
2023-04-27T06:03:01.239Z,54.03
2023-04-27T06:05:27.828Z,53.61
2023-04-27T06:07:54.198Z,54.00
2023-04-27T06:10:20.474Z,53.20
2023-04-27T06:12:46.741Z,53.32
2023-04-27T06:15:13.092Z,53.33
2023-04-27T06:17:39.505Z,53.96
2023-04-27T06:20:05.795Z,53.84
2023-04-27T06:22:32.247Z,53.74
2023-04-27T06:24:58.716Z,53.66
2023-04-27T06:27:25.286Z,53.90
2023-04-27T06:29:51.700Z,53.94
2023-04-27T06:32:18.292Z,53.78
2023-04-27T06:34:44.634Z,54.23
2023-04-27T06:37:11.181Z,53.84
2023-04-27T06:39:37.500Z,54.08
2023-04-27T06:42:04.180Z,54.26
2023-04-27T06:44:30.522Z,53.86
2023-04-27T06:46:57.203Z,53.86
2023-04-27T06:49:23.559Z,54.04
2023-04-27T06:51:49.833Z,54.66
2023-04-27T06:54:16.109Z,53.84
2023-04-27T06:56:42.361Z,54.15
2023-04-27T06:59:08.919Z,53.95
2023-04-27T07:01:35.375Z,54.22
2023-04-27T07:04:01.842Z,54.04
2023-04-27T07:06:28.234Z,54.38
2023-04-27T07:08:54.756Z,54.15
2023-04-27T07:11:21.168Z,54.11
2023-04-27T07:13:47.484Z,54.87
2023-04-27T07:16:14.018Z,54.21
2023-04-27T07:18:42.093Z,54.36
2023-04-27T07:21:10.075Z,54.48
2023-04-27T07:23:36.613Z,54.32
2023-04-27T07:26:02.951Z,54.18
2023-04-27T07:28:29.340Z,54.22
2023-04-27T07:30:55.757Z,53.89
2023-04-27T07:33:22.385Z,54.08
2023-04-27T07:35:48.932Z,53.79
2023-04-27T07:38:15.500Z,53.87
2023-04-27T07:40:43.817Z,53.91
2023-04-27T07:43:11.166Z,53.80
2023-04-27T07:45:37.553Z,53.58
2023-04-27T07:48:03.923Z,53.83
2023-04-27T07:50:30.563Z,53.40
2023-04-27T07:52:57.028Z,53.50
2023-04-27T07:55:24.576Z,53.61
2023-04-27T07:57:51.070Z,53.57
2023-04-27T08:00:17.404Z,53.59
2023-04-27T08:02:44.393Z,53.87
2023-04-27T08:05:11.430Z,53.82
2023-04-27T08:07:42.778Z,53.85
2023-04-27T08:10:11.005Z,53.88
2023-04-27T08:12:37.642Z,53.96
2023-04-27T08:15:03.993Z,54.01
2023-04-27T08:17:30.502Z,53.75
2023-04-27T08:19:57.465Z,54.12
2023-04-27T08:22:24.079Z,54.09
2023-04-27T08:24:50.409Z,54.01
2023-04-27T08:27:16.731Z,53.83
2023-04-27T08:29:43.195Z,53.93
2023-04-27T08:32:09.707Z,54.14
2023-04-27T08:34:36.323Z,54.12
2023-04-27T08:37:03.226Z,54.17
2023-04-27T08:39:29.602Z,54.13
2023-04-27T08:41:56.240Z,53.96
2023-04-27T08:44:22.974Z,53.99
2023-04-27T08:46:49.618Z,54.26
2023-04-27T08:49:17.007Z,54.21
2023-04-27T08:51:43.761Z,54.32
2023-04-27T08:54:10.142Z,53.99
2023-04-27T08:56:36.554Z,54.11
2023-04-27T08:59:02.901Z,54.00
2023-04-27T09:01:29.306Z,54.08
2023-04-27T09:03:56.125Z,54.12
2023-04-27T09:06:23.012Z,54.17
2023-04-27T09:08:49.549Z,54.23
2023-04-27T09:11:15.866Z,54.36
2023-04-27T09:13:42.217Z,54.20
2023-04-27T09:16:08.524Z,54.33
2023-04-27T09:18:34.896Z,54.03
2023-04-27T09:21:01.409Z,54.30
2023-04-27T09:23:27.779Z,54.15
2023-04-27T09:25:54.316Z,54.20
2023-04-27T09:28:20.843Z,54.09
2023-04-27T09:30:48.316Z,54.26
2023-04-27T09:33:15.732Z,54.18
2023-04-27T09:35:42.048Z,54.13
2023-04-27T09:38:08.432Z,54.30
2023-04-27T09:40:35.325Z,54.44
2023-04-27T09:43:03.139Z,54.35
2023-04-27T09:45:29.560Z,54.40
2023-04-27T09:47:56.203Z,54.50
2023-04-27T09:50:23.005Z,54.20
2023-04-27T09:52:49.348Z,54.29
2023-04-27T09:55:15.912Z,54.34
2023-04-27T09:57:42.297Z,54.68
2023-04-27T10:00:08.885Z,54.45
2023-04-27T10:02:42.983Z,54.34
2023-04-27T10:05:18.963Z,54.34
2023-04-27T10:07:45.317Z,54.31
2023-04-27T10:10:11.738Z,54.36
2023-04-27T10:12:38.180Z,54.46
2023-04-27T10:15:04.526Z,54.34
2023-04-27T10:17:31.089Z,54.27
2023-04-27T10:19:58.564Z,54.22
2023-04-27T10:22:25.069Z,54.18
2023-04-27T10:24:51.393Z,54.35
2023-04-27T10:27:17.688Z,54.05
2023-04-27T10:29:44.429Z,54.18
2023-04-27T10:32:10.879Z,54.08
2023-04-27T10:34:37.305Z,54.39
2023-04-27T10:37:03.651Z,54.42
2023-04-27T10:39:43.722Z,54.38
2023-04-27T10:42:13.831Z,54.30
2023-04-27T10:44:40.673Z,54.49
2023-04-27T10:47:07.114Z,54.40
2023-04-27T10:49:33.407Z,54.34
2023-04-27T10:51:59.888Z,54.38
2023-04-27T10:54:26.277Z,54.35
2023-04-27T10:56:52.878Z,54.19
2023-04-27T10:59:19.292Z,54.36
2023-04-27T11:01:45.774Z,54.31
2023-04-27T11:04:12.289Z,54.22
2023-04-27T11:06:39.020Z,53.85
2023-04-27T11:09:05.622Z,53.65
2023-04-27T11:11:32.395Z,53.80
2023-04-27T11:13:58.773Z,53.76
2023-04-27T11:16:25.426Z,53.79
2023-04-27T11:18:51.838Z,53.66
2023-04-27T11:21:18.420Z,53.53
2023-04-27T11:23:44.931Z,53.70
2023-04-27T11:26:11.443Z,53.57
2023-04-27T11:28:37.876Z,53.97
2023-04-27T11:31:04.306Z,53.65
2023-04-27T11:33:31.517Z,53.49
2023-04-27T11:35:58.249Z,53.64
2023-04-27T11:38:24.642Z,53.73
2023-04-27T11:40:51.176Z,53.60
2023-04-27T11:43:17.458Z,53.83
2023-04-27T11:45:43.939Z,53.40
2023-04-27T11:48:10.327Z,53.51
2023-04-27T11:50:36.919Z,53.71
2023-04-27T11:53:03.521Z,53.93
2023-04-27T11:55:29.919Z,54.13
2023-04-27T11:57:56.532Z,53.88
2023-04-27T12:00:23.173Z,53.87
2023-04-27T12:02:49.726Z,53.63
2023-04-27T12:05:16.368Z,53.45
2023-04-27T12:07:42.842Z,53.63
2023-04-27T12:10:09.456Z,53.53
2023-04-27T12:12:37.433Z,53.71
2023-04-27T12:15:03.683Z,53.79
2023-04-27T12:17:30.110Z,53.67
2023-04-27T12:19:56.741Z,53.93
2023-04-27T12:22:23.157Z,53.52
2023-04-27T12:24:49.453Z,53.65
2023-04-27T12:27:15.796Z,53.46
2023-04-27T12:29:42.387Z,53.81
2023-04-27T12:32:09.100Z,53.61
2023-04-27T12:34:35.780Z,53.83
2023-04-27T12:37:02.233Z,53.48
2023-04-27T12:39:28.817Z,53.79
2023-04-27T12:41:55.194Z,53.77
2023-04-27T12:44:21.714Z,53.64
2023-04-27T12:46:48.228Z,53.91
2023-04-27T12:49:14.888Z,53.73
2023-04-27T12:51:41.402Z,53.70
2023-04-27T12:54:07.825Z,53.68
2023-04-27T12:56:34.186Z,53.78
2023-04-27T12:59:01.202Z,53.41
2023-04-27T13:01:27.911Z,54.15
2023-04-27T13:03:54.433Z,54.05
2023-04-27T13:06:21.161Z,54.26
2023-04-27T13:08:47.447Z,54.28
2023-04-27T13:11:13.739Z,54.35
2023-04-27T13:13:40.219Z,54.01
2023-04-27T13:16:06.695Z,54.13
2023-04-27T13:18:35.019Z,54.29
2023-04-27T13:21:02.304Z,54.21
2023-04-27T13:23:28.705Z,54.09
2023-04-27T13:25:55.323Z,54.02
2023-04-27T13:28:21.725Z,54.15
2023-04-27T13:30:48.116Z,54.28
2023-04-27T13:33:22.507Z,54.26
2023-04-27T13:35:50.025Z,54.30
2023-04-27T13:38:16.475Z,53.90
2023-04-27T13:40:43.250Z,54.19
2023-04-27T13:43:09.600Z,54.38
2023-04-27T13:45:36.012Z,54.30
2023-04-27T13:48:02.565Z,54.06
2023-04-27T13:50:29.144Z,53.85
2023-04-27T13:52:55.686Z,53.91
2023-04-27T13:55:22.114Z,53.84
2023-04-27T13:57:48.933Z,54.13
2023-04-27T14:00:15.519Z,53.83
2023-04-27T14:02:42.080Z,53.97
2023-04-27T14:05:08.736Z,53.96
2023-04-27T14:07:35.174Z,54.07
2023-04-27T14:10:01.508Z,53.83
2023-04-27T14:12:28.176Z,54.14
2023-04-27T14:14:55.459Z,53.85
2023-04-27T14:17:23.230Z,54.19
2023-04-27T14:19:49.847Z,54.04
2023-04-27T14:22:16.342Z,53.93
2023-04-27T14:24:42.736Z,54.36
2023-04-27T14:27:09.181Z,54.35
2023-04-27T14:29:35.583Z,54.33
2023-04-27T14:32:02.054Z,54.15
2023-04-27T14:34:28.629Z,54.30
2023-04-27T14:36:55.180Z,54.49
2023-04-27T14:39:21.698Z,54.38
2023-04-27T14:41:48.040Z,54.08
2023-04-27T14:44:14.590Z,54.34
2023-04-27T14:46:41.096Z,54.38
2023-04-27T14:49:07.603Z,54.25
2023-04-27T14:51:34.233Z,54.21
2023-04-27T14:54:00.660Z,54.52
2023-04-27T14:56:26.974Z,54.45
2023-04-27T14:58:55.640Z,54.46
2023-04-27T15:01:22.326Z,54.38
2023-04-27T15:03:48.949Z,54.36
2023-04-27T15:06:15.596Z,54.33
2023-04-27T15:08:41.958Z,54.42
2023-04-27T15:11:08.388Z,54.59
2023-04-27T15:13:34.802Z,54.35
2023-04-27T15:16:01.322Z,54.32
2023-04-27T15:18:27.884Z,54.41
2023-04-27T15:20:54.246Z,54.59
2023-04-27T15:23:20.579Z,54.47
2023-04-27T15:25:47.527Z,54.56
2023-04-27T15:28:13.968Z,54.40
2023-04-27T15:30:40.432Z,54.37
2023-04-27T15:33:08.160Z,54.33
2023-04-27T15:35:37.358Z,54.53
2023-04-27T15:38:03.726Z,54.27
2023-04-27T15:40:30.048Z,54.57
2023-04-27T15:42:56.394Z,54.37
2023-04-27T15:45:22.781Z,54.35
2023-04-27T15:47:49.166Z,54.18
2023-04-27T15:50:17.037Z,54.37
2023-04-27T15:52:44.341Z,54.49
2023-04-27T15:55:10.751Z,54.36
2023-04-27T15:57:37.913Z,54.40
2023-04-27T16:00:04.232Z,54.68
2023-04-27T16:02:30.777Z,54.18
2023-04-27T16:04:57.234Z,54.67
2023-04-27T16:07:23.574Z,54.58
2023-04-27T16:09:51.076Z,54.69
2023-04-27T16:12:17.373Z,54.58
2023-04-27T16:14:43.707Z,54.64
2023-04-27T16:17:10.520Z,54.71
2023-04-27T16:19:38.642Z,54.49
2023-04-27T16:22:05.037Z,54.59
2023-04-27T16:24:31.375Z,54.25
2023-04-27T16:26:59.721Z,54.55
2023-04-27T16:29:26.067Z,54.34
2023-04-27T16:31:52.825Z,54.69
2023-04-27T16:34:19.425Z,54.62
2023-04-27T16:36:45.951Z,54.64
2023-04-27T16:39:12.694Z,54.65
2023-04-27T16:41:39.159Z,54.55
2023-04-27T16:44:05.539Z,54.47
2023-04-27T16:46:31.857Z,54.34
2023-04-27T16:48:58.240Z,54.39
2023-04-27T16:51:24.628Z,54.54
2023-04-27T16:53:51.481Z,54.53
2023-04-27T16:56:17.893Z,54.33
2023-04-27T16:58:44.189Z,54.57
2023-04-27T17:01:10.646Z,54.49
2023-04-27T17:03:37.123Z,54.45
2023-04-27T17:06:03.606Z,54.64
2023-04-27T17:08:30.791Z,54.58
2023-04-27T17:10:57.811Z,54.43
2023-04-27T17:13:24.207Z,54.49
2023-04-27T17:15:51.307Z,54.17
2023-04-27T17:18:17.765Z,53.71
2023-04-27T17:20:44.238Z,51.77
2023-04-27T17:23:10.559Z,51.76
2023-04-27T17:25:37.567Z,53.05
2023-04-27T17:28:03.956Z,53.34
2023-04-27T17:30:30.770Z,53.21
2023-04-27T17:32:57.751Z,53.36
2023-04-27T17:35:24.260Z,53.25
2023-04-27T17:37:50.905Z,53.67
2023-04-27T17:40:17.312Z,53.91
2023-04-27T17:42:43.812Z,53.89
2023-04-27T17:45:10.198Z,54.39
2023-04-27T17:47:36.523Z,54.51
2023-04-27T17:50:03.368Z,54.73
2023-04-27T17:52:29.787Z,54.09
2023-04-27T17:54:56.429Z,54.61
2023-04-27T17:57:23.103Z,54.60
2023-04-27T17:59:49.717Z,54.55
2023-04-27T18:02:16.383Z,54.20
2023-04-27T18:04:42.827Z,53.77
2023-04-27T18:07:09.204Z,53.48
2023-04-27T18:09:35.518Z,52.41
2023-04-27T18:12:03.059Z,53.88
2023-04-27T18:14:29.344Z,53.36
2023-04-27T18:16:55.817Z,53.21
2023-04-27T18:19:22.218Z,53.38
2023-04-27T18:21:48.574Z,52.91
2023-04-27T18:24:15.242Z,52.70
2023-04-27T18:26:41.624Z,52.79
2023-04-27T18:29:08.199Z,52.31
2023-04-27T18:31:34.880Z,53.02
2023-04-27T18:34:01.340Z,53.76
2023-04-27T18:36:28.136Z,52.05
2023-04-27T18:38:54.535Z,52.46
2023-04-27T18:41:20.959Z,52.95
2023-04-27T18:43:47.484Z,52.90
2023-04-27T18:46:13.866Z,52.42
2023-04-27T18:48:40.205Z,54.04
2023-04-27T18:51:06.781Z,53.79
2023-04-27T18:53:33.140Z,54.12
2023-04-27T18:55:59.533Z,54.25
2023-04-27T18:58:26.072Z,53.44
2023-04-27T19:00:53.035Z,54.21
2023-04-27T19:03:20.073Z,54.18
2023-04-27T19:05:46.549Z,54.00
2023-04-27T19:08:13.073Z,53.92
2023-04-27T19:10:39.432Z,54.23
2023-04-27T19:13:05.740Z,54.12
2023-04-27T19:15:32.508Z,54.23
2023-04-27T19:18:09.367Z,53.95
2023-04-27T19:20:37.210Z,54.54
2023-04-27T19:23:05.309Z,53.86
2023-04-27T19:25:31.706Z,53.74
2023-04-27T19:27:58.019Z,53.79
2023-04-27T19:30:27.917Z,54.57
2023-04-27T19:32:54.215Z,54.32
2023-04-27T19:35:20.981Z,54.44
2023-04-27T19:37:47.320Z,54.61
2023-04-27T19:40:13.802Z,54.43
2023-04-27T19:42:40.576Z,54.55
2023-04-27T19:45:07.003Z,54.59
2023-04-27T19:47:33.329Z,54.56
2023-04-27T19:49:59.840Z,54.47
2023-04-27T19:52:26.223Z,54.71
2023-04-27T19:54:52.658Z,54.75
2023-04-27T19:57:18.995Z,54.62
2023-04-27T20:02:29.463Z,54.75
2023-04-27T20:04:56.893Z,54.60
2023-04-27T20:07:23.623Z,54.97
2023-04-27T20:09:50.136Z,54.87
2023-04-27T20:12:40.226Z,54.58
2023-04-27T20:15:02.908Z,54.96
2023-04-27T20:17:29.272Z,54.85
2023-04-27T20:19:55.680Z,54.55
2023-04-27T20:22:22.195Z,53.35
2023-04-27T20:24:48.750Z,54.76
2023-04-27T20:27:15.432Z,54.26
2023-04-27T20:29:41.984Z,54.45
2023-04-27T20:32:08.436Z,54.26
2023-04-27T20:34:36.314Z,54.45
2023-04-27T20:37:02.615Z,54.56
2023-04-27T20:39:28.959Z,54.29
2023-04-27T20:41:56.144Z,54.60
2023-04-27T20:44:22.820Z,54.56
2023-04-27T20:46:49.172Z,54.63
2023-04-27T20:49:24.714Z,54.83
2023-04-27T20:51:58.301Z,54.38
2023-04-27T20:54:24.758Z,54.21
2023-04-27T20:56:51.191Z,54.54
2023-04-27T20:59:17.596Z,54.06
2023-04-27T21:01:44.043Z,54.05
2023-04-27T21:04:10.659Z,53.78
2023-04-27T21:06:37.110Z,53.84
2023-04-27T21:09:03.502Z,53.93
2023-04-27T21:11:29.990Z,53.68
2023-04-27T21:13:56.657Z,53.89
2023-04-27T21:16:23.317Z,53.80
2023-04-27T21:18:49.634Z,53.88
2023-04-27T21:21:16.042Z,53.79
2023-04-27T21:23:42.781Z,54.00
2023-04-27T21:26:09.172Z,53.85
2023-04-27T21:28:35.668Z,53.96
2023-04-27T21:31:02.247Z,53.58
2023-04-27T21:33:28.616Z,53.60
2023-04-27T21:35:55.231Z,53.69
2023-04-27T21:38:21.558Z,53.56
2023-04-27T21:40:48.001Z,53.53
2023-04-27T21:43:14.360Z,53.79
2023-04-27T21:45:40.721Z,53.80
2023-04-27T21:48:07.341Z,53.72
2023-04-27T21:50:33.920Z,53.61
2023-04-27T21:53:00.616Z,53.94
2023-04-27T21:55:27.340Z,53.81
2023-04-27T21:57:53.796Z,53.76
2023-04-27T22:00:20.212Z,53.66
2023-04-27T22:02:47.675Z,53.73
2023-04-27T22:05:14.918Z,53.95
2023-04-27T22:07:41.400Z,53.66
2023-04-27T22:10:07.901Z,53.57
2023-04-27T22:12:34.720Z,53.84
2023-04-27T22:15:01.600Z,53.65
2023-04-27T22:17:29.923Z,53.77
2023-04-27T22:19:57.355Z,53.66
2023-04-27T22:22:23.944Z,53.81
2023-04-27T22:24:50.693Z,53.67
2023-04-27T22:27:17.640Z,54.01
2023-04-27T22:29:44.452Z,53.70
2023-04-27T22:32:10.871Z,53.97
2023-04-27T22:34:37.492Z,54.21
2023-04-27T22:37:04.151Z,54.21
2023-04-27T22:39:30.521Z,54.56
2023-04-27T22:41:58.793Z,54.48
2023-04-27T22:44:25.122Z,54.42
2023-04-27T22:46:51.531Z,54.42
2023-04-27T22:49:18.938Z,54.30
2023-04-27T22:51:45.521Z,54.59
2023-04-27T22:54:12.303Z,54.40
2023-04-27T22:56:39.981Z,54.26
2023-04-27T22:59:06.333Z,54.19
2023-04-27T23:01:32.771Z,54.32
2023-04-27T23:03:59.476Z,54.07
2023-04-27T23:06:25.978Z,53.89
2023-04-27T23:08:52.418Z,54.10
2023-04-27T23:11:19.048Z,53.82
2023-04-27T23:13:45.390Z,53.79
2023-04-27T23:16:12.022Z,53.74
2023-04-27T23:18:38.721Z,53.72
2023-04-27T23:21:05.113Z,53.56
2023-04-27T23:23:32.240Z,53.33
2023-04-27T23:25:58.653Z,53.13
2023-04-27T23:28:25.032Z,53.06
2023-04-27T23:30:51.548Z,53.00
2023-04-27T23:33:17.973Z,52.97
2023-04-27T23:35:44.327Z,52.98
2023-04-27T23:38:10.852Z,52.86
2023-04-27T23:40:37.517Z,53.03
2023-04-27T23:43:04.164Z,52.70
2023-04-27T23:45:30.572Z,52.72
2023-04-27T23:47:59.438Z,52.63
2023-04-27T23:50:26.968Z,52.69
2023-04-27T23:52:53.317Z,52.46
2023-04-27T23:55:19.684Z,52.48
2023-04-27T23:57:46.227Z,52.66
